Time;durP1;ratioP1;P1;durP2;ratioP2;P2;SDS_P1;SDS_P2;PMS_P1;PMS_P2;Temp;Humidity;BMP_temperature;BMP_pressure;BME280_temperature;BME280_humidity;BME280_pressure;Samples;Min_cycle;Max_cycle;Signal;HPM_P1;HPM_P2
2023/10/06 00:01:42;;;;;;;3.30;1.30;;;14.00;99.90;;;;;;5054252;28;20040;-47
2023/10/06 00:04:12;;;;;;;3.25;1.30;;;14.10;99.90;;;;;;5054423;28;20428;-47
2023/10/06 00:06:41;;;;;;;9.23;1.63;;;14.00;99.90;;;;;;5054324;28;20060;-47
2023/10/06 00:09:19;;;;;;;5.35;2.45;;;14.00;99.90;;;;;;5054260;28;20032;-56
2023/10/06 00:11:46;;;;;;;5.38;1.70;;;14.00;99.90;;;;;;5054067;28;20135;-59
2023/10/06 00:14:38;;;;;;;3.30;1.38;;;14.00;99.90;;;;;;5054162;28;20477;-57
2023/10/06 00:16:57;;;;;;;4.53;1.23;;;14.00;99.90;;;;;;5053852;28;20559;-53
2023/10/06 00:19:32;;;;;;;4.55;1.63;;;14.00;99.90;;;;;;5054075;28;20033;-53
2023/10/06 00:24:55;;;;;;;6.70;1.60;;;13.90;99.90;;;;;;5054091;28;20478;-58
2023/10/06 00:27:24;;;;;;;6.10;1.40;;;14.00;99.90;;;;;;5053784;28;20025;-57
2023/10/06 00:29:56;;;;;;;4.85;1.35;;;14.00;99.90;;;;;;5053708;28;20032;-54
2023/10/06 00:32:23;;;;;;;5.82;1.30;;;13.90;99.90;;;;;;5053572;28;20401;-60
2023/10/06 00:35:08;;;;;;;1.98;1.10;;;13.90;99.90;;;;;;5053868;28;20029;-52
2023/10/06 00:37:41;;;;;;;1.88;1.23;;;13.90;99.90;;;;;;5053566;28;20032;-52
2023/10/06 00:40:19;;;;;;;5.75;1.75;;;13.90;99.90;;;;;;5053697;28;20025;-55
2023/10/06 00:42:54;;;;;;;4.05;1.38;;;13.90;99.90;;;;;;5053393;28;20111;-54
2023/10/06 00:45:22;;;;;;;4.30;1.60;;;14.00;99.90;;;;;;5053796;28;20110;-55
2023/10/06 00:47:52;;;;;;;6.25;1.42;;;13.90;99.90;;;;;;5053421;28;20047;-54
2023/10/06 00:50:22;;;;;;;3.85;1.50;;;14.00;99.90;;;;;;5053501;28;20053;-56
2023/10/06 00:52:48;;;;;;;6.57;1.30;;;14.00;99.90;;;;;;5053503;28;20048;-52
2023/10/06 00:55:14;;;;;;;4.30;1.20;;;14.00;99.90;;;;;;5053298;28;20493;-53
2023/10/06 00:57:52;;;;;;;4.57;1.30;;;14.00;99.90;;;;;;5052858;28;20032;-51
2023/10/06 01:00:21;;;;;;;2.20;1.23;;;13.90;99.90;;;;;;5053206;28;20040;-57
2023/10/06 01:02:48;;;;;;;3.38;1.15;;;13.90;99.90;;;;;;5053380;28;20029;-51
2023/10/06 01:05:15;;;;;;;4.55;1.33;;;14.00;99.90;;;;;;5053054;28;20025;-54
2023/10/06 01:07:49;;;;;;;3.05;1.10;;;14.00;99.90;;;;;;5053130;28;20022;-52
2023/10/06 01:10:25;;;;;;;3.33;1.13;;;14.00;99.90;;;;;;5052898;28;20593;-56
2023/10/06 01:12:52;;;;;;;2.42;1.02;;;14.00;99.90;;;;;;5052999;28;20428;-57
2023/10/06 01:15:19;;;;;;;3.70;1.00;;;14.00;99.90;;;;;;5052923;28;20504;-57
2023/10/06 01:17:45;;;;;;;3.22;1.27;;;14.00;99.90;;;;;;5053005;28;20025;-56
2023/10/06 01:20:18;;;;;;;3.45;1.40;;;14.10;99.90;;;;;;5052767;28;20103;-52
2023/10/06 01:22:44;;;;;;;5.63;1.30;;;14.10;99.90;;;;;;5058136;28;20389;-55
2023/10/06 01:25:20;;;;;;;3.67;1.20;;;14.20;99.90;;;;;;5052675;28;20112;-56
2023/10/06 01:27:50;;;;;;;1.77;1.00;;;14.10;99.90;;;;;;5052508;28;20031;-59
2023/10/06 01:32:46;;;;;;;3.28;1.10;;;14.10;99.90;;;;;;5052279;28;20045;-56
2023/10/06 01:35:12;;;;;;;3.22;1.33;;;14.10;99.90;;;;;;5052819;28;20057;-57
2023/10/06 01:37:43;;;;;;;5.15;1.30;;;14.10;99.90;;;;;;5052633;28;20025;-56
2023/10/06 01:40:56;;;;;;;5.75;1.83;;;14.00;99.90;;;;;;5052635;28;20025;-49
2023/10/06 01:43:14;;;;;;;4.70;1.40;;;14.00;99.90;;;;;;5041415;28;20033;-48
2023/10/06 01:45:46;;;;;;;5.03;2.15;;;14.00;99.90;;;;;;5036642;28;20124;-50
2023/10/06 01:50:39;;;;;;;3.38;0.95;;;14.00;99.90;;;;;;5052373;28;20124;-50
2023/10/06 01:53:07;;;;;;;6.57;1.20;;;14.00;99.90;;;;;;5052181;28;20029;-58
2023/10/06 01:55:39;;;;;;;3.08;1.30;;;13.90;99.90;;;;;;5052194;28;20111;-53
2023/10/06 01:58:07;;;;;;;3.85;1.20;;;13.90;99.90;;;;;;5052107;28;20032;-54
2023/10/06 02:00:36;;;;;;;2.50;1.17;;;13.80;99.90;;;;;;5052171;28;20067;-55
2023/10/06 02:03:03;;;;;;;2.72;1.30;;;13.80;99.90;;;;;;5052095;28;20048;-52
2023/10/06 02:05:29;;;;;;;3.35;1.50;;;13.80;99.90;;;;;;5051847;28;20512;-55
2023/10/06 02:08:00;;;;;;;2.25;1.20;;;13.80;99.90;;;;;;5051943;28;20112;-54
2023/10/06 02:10:27;;;;;;;4.53;1.50;;;13.70;99.90;;;;;;5051827;28;20033;-55
2023/10/06 02:12:52;;;;;;;2.90;1.48;;;13.70;99.90;;;;;;5051986;28;20021;-56
2023/10/06 02:15:18;;;;;;;3.22;1.50;;;13.70;99.90;;;;;;5051772;28;20047;-55
2023/10/06 02:17:44;;;;;;;4.55;1.42;;;13.60;99.90;;;;;;5051776;28;20020;-56
2023/10/06 02:20:28;;;;;;;4.45;1.20;;;13.70;99.90;;;;;;5051785;28;20029;-50
2023/10/06 02:22:59;;;;;;;7.18;1.58;;;13.70;99.90;;;;;;5052095;28;20040;-56
2023/10/06 02:25:25;;;;;;;3.60;1.33;;;13.70;99.90;;;;;;5051564;28;20025;-58
2023/10/06 02:27:54;;;;;;;6.18;1.67;;;13.70;99.90;;;;;;5051602;28;20025;-58
2023/10/06 02:30:33;;;;;;;3.28;1.40;;;13.80;99.90;;;;;;5051482;28;20087;-57
2023/10/06 02:33:00;;;;;;;3.85;1.70;;;13.70;99.90;;;;;;5051279;28;20052;-48
2023/10/06 02:35:25;;;;;;;2.67;1.35;;;13.70;99.90;;;;;;5051670;28;20116;-49
2023/10/06 02:37:51;;;;;;;3.65;1.50;;;13.60;99.90;;;;;;5051505;28;20786;-52
2023/10/06 02:40:17;;;;;;;2.42;1.30;;;13.60;99.90;;;;;;5051328;28;20493;-56
2023/10/06 02:42:53;;;;;;;2.17;1.15;;;13.60;99.90;;;;;;5051165;28;20043;-50
2023/10/06 02:45:21;;;;;;;4.47;1.80;;;13.60;99.90;;;;;;5051189;28;20060;-49
2023/10/06 02:47:57;;;;;;;5.50;1.63;;;13.60;99.90;;;;;;5051139;28;20017;-55
2023/10/06 02:50:23;;;;;;;3.85;1.40;;;13.50;99.90;;;;;;5051283;28;20171;-49
2023/10/06 02:52:53;;;;;;;10.82;1.98;;;13.60;99.90;;;;;;5051051;28;20437;-54
2023/10/06 02:55:31;;;;;;;;;;;13.50;99.90;;;;;;5051748;28;20036;-54
2023/10/06 02:57:58;;;;;;;3.30;1.50;;;13.60;99.90;;;;;;5050853;28;20073;-54
2023/10/06 03:02:57;;;;;;;4.10;1.50;;;13.50;99.90;;;;;;5051215;28;20103;-56
2023/10/06 03:05:32;;;;;;;6.93;1.80;;;13.60;99.90;;;;;;5051036;28;20029;-53
2023/10/06 03:08:00;;;;;;;7.15;1.95;;;13.60;99.90;;;;;;5050844;28;20040;-51
2023/10/06 03:10:30;;;;;;;5.47;1.95;;;13.50;99.90;;;;;;5050733;28;20041;-51
2023/10/06 03:12:57;;;;;;;4.38;1.40;;;13.50;99.90;;;;;;5050924;28;20393;-50
2023/10/06 03:15:36;;;;;;;9.95;1.70;;;13.50;99.90;;;;;;5050823;28;20025;-55
2023/10/06 03:18:05;;;;;;;4.53;1.23;;;13.50;99.90;;;;;;5050998;28;20036;-56
2023/10/06 03:20:46;;;;;;;4.70;1.55;;;13.50;99.90;;;;;;5050548;28;20033;-52
2023/10/06 03:25:56;;;;;;;2.60;1.17;;;13.50;99.90;;;;;;5050910;28;20017;-55
2023/10/06 03:28:37;;;;;;;4.22;1.50;;;13.50;99.90;;;;;;5050741;28;20363;-52
2023/10/06 03:31:30;;;;;;;4.63;1.77;;;13.40;99.90;;;;;;5050537;28;20036;-54
2023/10/06 03:33:54;;;;;;;2.08;1.30;;;13.50;99.90;;;;;;5049964;28;20044;-55
2023/10/06 03:36:37;;;;;;;5.10;1.70;;;13.50;99.90;;;;;;5050404;28;20473;-50
2023/10/06 03:39:07;;;;;;;5.93;1.63;;;13.50;99.90;;;;;;5050523;28;20021;-57
2023/10/06 03:41:36;;;;;;;3.85;1.67;;;13.50;99.90;;;;;;5050576;28;20025;-48
2023/10/06 03:44:05;;;;;;;6.07;2.47;;;13.50;99.90;;;;;;5050466;28;20025;-51
2023/10/06 03:46:38;;;;;;;2.88;1.40;;;13.50;99.90;;;;;;5064458;28;20424;-55
2023/10/06 03:49:05;;;;;;;3.85;1.48;;;13.50;99.90;;;;;;5050370;28;20032;-56
2023/10/06 03:51:37;;;;;;;3.80;1.30;;;13.50;99.90;;;;;;5050084;28;20032;-53
2023/10/06 03:54:04;;;;;;;6.85;1.65;;;13.50;99.90;;;;;;5050316;28;20040;-53
2023/10/06 03:56:30;;;;;;;2.08;1.20;;;13.50;99.90;;;;;;5050114;28;20025;-53
2023/10/06 03:58:56;;;;;;;3.30;1.40;;;13.50;99.90;;;;;;5050349;28;20021;-55
2023/10/06 04:01:31;;;;;;;3.53;1.35;;;13.50;99.90;;;;;;5050019;28;20098;-53
2023/10/06 04:03:59;;;;;;;5.97;1.38;;;13.50;99.90;;;;;;5050373;28;20027;-56
2023/10/06 04:06:28;;;;;;;4.40;1.35;;;13.50;99.90;;;;;;5050163;28;20053;-50
2023/10/06 04:08:56;;;;;;;4.70;1.30;;;13.50;99.90;;;;;;5050241;28;20025;-49
2023/10/06 04:11:22;;;;;;;2.33;1.33;;;13.50;99.90;;;;;;5050039;28;20090;-51
2023/10/06 04:13:48;;;;;;;5.82;1.48;;;13.50;99.90;;;;;;5050162;28;20025;-52
2023/10/06 04:16:14;;;;;;;6.30;1.63;;;13.50;99.90;;;;;;5050214;28;20017;-50
2023/10/06 04:18:40;;;;;;;2.80;1.55;;;13.50;99.90;;;;;;5049835;28;20473;-50
2023/10/06 04:21:11;;;;;;;2.45;1.23;;;13.50;99.90;;;;;;5050152;28;20386;-54
2023/10/06 04:23:41;;;;;;;5.68;1.65;;;13.50;99.90;;;;;;5049901;28;20036;-54
2023/10/06 04:26:11;;;;;;;4.72;1.50;;;13.50;99.90;;;;;;5050331;28;20033;-54
2023/10/06 04:28:37;;;;;;;4.18;1.42;;;13.50;99.90;;;;;;5049946;28;20021;-53
2023/10/06 04:31:05;;;;;;;4.55;1.73;;;13.50;99.90;;;;;;5049891;28;20575;-56
2023/10/06 04:33:31;;;;;;;8.07;2.28;;;13.50;99.90;;;;;;5052404;28;20103;-58
2023/10/06 04:36:07;;;;;;;5.60;1.67;;;13.40;99.90;;;;;;5053645;28;20024;-52
2023/10/06 04:38:40;;;;;;;5.53;1.63;;;13.40;99.90;;;;;;5053958;28;20060;-50
2023/10/06 04:41:09;;;;;;;7.30;2.00;;;13.40;99.90;;;;;;5053599;28;20093;-54
2023/10/06 04:43:35;;;;;;;7.63;1.40;;;13.40;99.90;;;;;;5053730;28;20108;-53
2023/10/06 04:46:05;;;;;;;8.98;1.80;;;13.40;99.90;;;;;;5053338;28;20025;-57
2023/10/06 04:48:31;;;;;;;3.90;1.80;;;13.40;99.90;;;;;;5053357;28;20427;-53
2023/10/06 04:50:57;;;;;;;6.90;1.70;;;13.40;99.90;;;;;;5053274;28;20063;-54
2023/10/06 04:53:22;;;;;;;3.15;1.67;;;13.40;99.90;;;;;;5053187;28;20111;-54
2023/10/06 04:55:48;;;;;;;5.05;1.98;;;13.40;99.90;;;;;;5053291;28;20520;-56
2023/10/06 04:58:14;;;;;;;5.43;1.80;;;13.40;99.90;;;;;;5053248;28;20021;-54
2023/10/06 05:00:41;;;;;;;5.82;1.95;;;13.40;99.90;;;;;;5053383;28;20485;-55
2023/10/06 05:03:10;;;;;;;4.68;1.98;;;13.40;99.90;;;;;;5053011;28;20029;-56
2023/10/06 05:05:40;;;;;;;4.53;2.15;;;13.40;99.90;;;;;;5053438;28;20037;-56
2023/10/06 05:08:09;;;;;;;12.85;2.45;;;13.50;99.90;;;;;;5053064;28;20032;-54
2023/10/06 05:10:36;;;;;;;3.83;1.80;;;13.60;99.90;;;;;;5053243;28;20041;-58
2023/10/06 05:13:05;;;;;;;6.80;2.22;;;13.60;99.90;;;;;;5053148;28;20051;-50
2023/10/06 05:15:32;;;;;;;4.40;1.92;;;13.60;99.90;;;;;;5052921;28;20044;-53
2023/10/06 05:17:58;;;;;;;3.63;2.03;;;13.60;99.90;;;;;;5053010;28;20031;-53
2023/10/06 05:20:31;;;;;;;4.10;2.00;;;13.60;99.90;;;;;;5052964;28;20017;-57
2023/10/06 05:23:09;;;;;;;7.35;2.33;;;13.60;99.90;;;;;;5053025;28;20029;-55
2023/10/06 05:25:35;;;;;;;7.00;2.60;;;13.60;99.90;;;;;;5052791;28;20087;-55
2023/10/06 05:28:01;;;;;;;5.18;2.20;;;13.60;99.90;;;;;;5052742;28;20044;-56
2023/10/06 05:30:28;;;;;;;6.93;2.28;;;13.70;99.90;;;;;;5052491;28;20036;-51
2023/10/06 05:32:58;;;;;;;4.88;2.45;;;13.70;99.90;;;;;;5052528;28;20048;-56
2023/10/06 05:35:27;;;;;;;7.03;2.60;;;13.70;99.90;;;;;;5052824;28;20060;-57
2023/10/06 05:37:53;;;;;;;;;;;13.70;99.90;;;;;;5057312;28;20062;-58
2023/10/06 05:40:20;;;;;;;5.22;2.40;;;13.70;99.90;;;;;;5062252;28;19917;-53
2023/10/06 05:42:49;;;;;;;6.68;2.28;;;13.70;99.90;;;;;;5052283;28;20486;-53
2023/10/06 05:45:18;;;;;;;5.32;2.42;;;13.70;99.90;;;;;;5051875;28;20397;-53
2023/10/06 05:47:45;;;;;;;7.50;2.63;;;13.70;99.90;;;;;;5034355;28;20414;-56
2023/10/06 05:50:18;;;;;;;5.53;2.15;;;13.70;99.90;;;;;;5052314;28;20557;-57
2023/10/06 05:52:44;;;;;;;7.07;2.60;;;13.70;99.90;;;;;;5052282;28;20028;-58
2023/10/06 05:55:12;;;;;;;6.53;2.28;;;13.70;99.90;;;;;;5052312;28;20025;-52
2023/10/06 05:57:39;;;;;;;4.70;1.92;;;13.70;99.90;;;;;;5052467;28;20036;-53
2023/10/06 06:00:09;;;;;;;6.20;2.17;;;13.70;99.90;;;;;;5052218;28;20025;-58
2023/10/06 06:02:37;;;;;;;7.50;2.30;;;13.70;99.90;;;;;;5052173;28;20424;-55
2023/10/06 06:05:04;;;;;;;6.22;2.20;;;13.60;99.90;;;;;;5051925;28;20110;-55
2023/10/06 06:07:33;;;;;;;7.40;2.50;;;13.60;99.90;;;;;;5051920;28;20028;-57
2023/10/06 06:09:59;;;;;;;;;;;13.60;99.90;;;;;;5052177;28;20086;-58
2023/10/06 06:12:25;;;;;;;7.97;2.33;;;13.50;99.90;;;;;;5060584;28;19912;-58
2023/10/06 06:14:54;;;;;;;4.38;2.10;;;13.50;99.90;;;;;;5057253;28;20032;-58
2023/10/06 06:17:20;;;;;;;4.10;2.10;;;13.50;99.90;;;;;;5058917;28;20023;-56
2023/10/06 06:19:46;;;;;;;5.95;2.10;;;13.60;99.90;;;;;;5058761;28;20029;-50
2023/10/06 06:22:12;;;;;;;4.32;2.05;;;13.60;99.90;;;;;;5051612;28;20086;-50
2023/10/06 06:24:38;;;;;;;4.00;1.92;;;13.60;99.90;;;;;;5051754;28;20040;-52
2023/10/06 06:27:04;;;;;;;3.75;1.70;;;13.60;99.90;;;;;;5051677;28;20021;-50
2023/10/06 06:29:29;;;;;;;3.00;1.65;;;13.60;99.90;;;;;;5051686;28;20032;-52
2023/10/06 06:31:55;;;;;;;5.03;1.80;;;13.60;99.90;;;;;;5051218;28;20044;-52
2023/10/06 06:34:21;;;;;;;6.13;1.92;;;13.60;99.90;;;;;;5051286;28;20083;-52
2023/10/06 06:36:47;;;;;;;3.13;1.40;;;13.60;99.90;;;;;;5051328;28;20025;-51
2023/10/06 06:39:12;;;;;;;4.97;2.15;;;13.60;99.90;;;;;;5051544;28;20063;-50
2023/10/06 06:41:38;;;;;;;5.03;1.58;;;13.60;99.90;;;;;;5051611;28;20110;-55
2023/10/06 06:44:04;;;;;;;3.75;1.60;;;13.60;99.90;;;;;;5051440;28;20495;-57
2023/10/06 06:46:29;;;;;;;6.97;1.80;;;13.70;99.90;;;;;;5051170;28;20029;-54
2023/10/06 06:48:56;;;;;;;2.35;1.23;;;13.80;99.90;;;;;;5059128;28;20158;-59
2023/10/06 06:51:30;;;;;;;4.97;2.05;;;13.80;99.90;;;;;;5070745;28;20051;-52
2023/10/06 06:53:58;;;;;;;3.25;1.58;;;13.90;99.90;;;;;;5071064;28;20008;-51
2023/10/06 06:56:28;;;;;;;3.25;1.38;;;13.90;99.90;;;;;;5067263;28;20024;-56
2023/10/06 06:58:55;;;;;;;;;;;14.00;99.90;;;;;;5055963;28;20028;-50
2023/10/06 07:01:20;;;;;;;5.50;1.85;;;14.10;99.90;;;;;;5068149;28;20386;-50
2023/10/06 07:03:46;;;;;;;6.15;1.75;;;14.10;99.90;;;;;;5067952;28;20020;-49
2023/10/06 07:06:16;;;;;;;4.88;1.92;;;14.20;99.90;;;;;;5064565;28;20376;-52
2023/10/06 07:08:46;;;;;;;5.68;1.98;;;14.30;99.90;;;;;;5061428;28;20028;-52
2023/10/06 07:11:13;;;;;;;3.90;1.60;;;14.30;99.90;;;;;;5068094;28;20551;-57
2023/10/06 07:13:39;;;;;;;5.07;1.67;;;14.40;99.90;;;;;;5066148;28;20055;-48
2023/10/06 07:16:05;;;;;;;10.18;2.22;;;14.60;99.90;;;;;;5065211;28;20028;-52
2023/10/06 07:18:31;;;;;;;4.10;1.77;;;14.60;99.90;;;;;;5066850;28;20523;-49
2023/10/06 07:20:57;;;;;;;7.38;2.38;;;14.70;99.90;;;;;;5069712;28;20107;-51
2023/10/06 07:23:23;;;;;;;4.47;1.50;;;14.80;99.90;;;;;;5065718;28;20172;-55
2023/10/06 07:25:49;;;;;;;5.32;1.73;;;14.90;99.90;;;;;;5070464;28;20536;-51
2023/10/06 07:28:14;;;;;;;4.90;1.80;;;14.90;99.90;;;;;;5070449;28;20016;-53
2023/10/06 07:30:40;;;;;;;5.00;1.70;;;15.00;99.90;;;;;;5069401;28;20032;-60
2023/10/06 07:33:06;;;;;;;6.28;2.17;;;15.00;99.90;;;;;;5050924;28;20493;-51
2023/10/06 07:35:43;;;;;;;8.68;1.75;;;15.00;99.90;;;;;;5062819;28;20036;-48
2023/10/06 07:38:12;;;;;;;5.00;2.15;;;15.10;99.90;;;;;;5050411;28;20029;-50
2023/10/06 07:40:38;;;;;;;9.90;2.00;;;15.10;99.90;;;;;;5057578;28;20029;-47
2023/10/06 07:43:05;;;;;;;4.50;1.98;;;15.20;99.90;;;;;;5061332;28;20021;-49
2023/10/06 07:45:32;;;;;;;4.05;2.05;;;15.30;99.90;;;;;;5055220;28;20029;-51
2023/10/06 07:47:58;;;;;;;5.40;1.73;;;15.40;99.90;;;;;;5057626;28;20150;-52
2023/10/06 07:50:26;;;;;;;3.55;1.80;;;15.50;99.90;;;;;;5068210;28;20115;-56
2023/10/06 07:52:52;;;;;;;4.43;1.65;;;15.50;99.90;;;;;;5061058;28;20036;-53
2023/10/06 07:55:21;;;;;;;4.00;2.10;;;15.60;99.90;;;;;;5070026;28;20076;-57
2023/10/06 07:57:48;;;;;;;4.55;2.15;;;15.70;99.90;;;;;;5070254;28;20294;-49
2023/10/06 08:00:27;;;;;;;3.90;1.85;;;15.80;99.90;;;;;;5070227;28;20025;-56
2023/10/06 08:03:04;;;;;;;5.03;1.60;;;15.80;99.90;;;;;;5064428;28;20333;-53
2023/10/06 08:05:29;;;;;;;6.70;2.33;;;15.90;99.90;;;;;;5070049;28;20512;-51
2023/10/06 08:07:59;;;;;;;6.65;1.92;;;16.00;99.90;;;;;;5071927;28;20028;-50
2023/10/06 08:10:25;;;;;;;3.60;1.42;;;16.10;99.90;;;;;;5067536;28;20028;-56
2023/10/06 08:12:56;;;;;;;6.40;1.65;;;16.10;99.90;;;;;;5074111;28;20082;-49
2023/10/06 08:15:22;;;;;;;5.13;1.50;;;16.20;99.90;;;;;;5072563;28;20047;-53
2023/10/06 08:17:55;;;;;;;5.55;1.80;;;16.30;99.90;;;;;;5071746;28;20421;-52
2023/10/06 08:20:22;;;;;;;6.57;1.65;;;16.30;99.90;;;;;;5073911;28;20059;-60
2023/10/06 08:22:49;;;;;;;6.35;1.92;;;16.40;99.90;;;;;;5073922;28;20474;-58
2023/10/06 08:25:18;;;;;;;6.70;1.13;;;16.50;99.90;;;;;;5073037;28;20451;-59
2023/10/06 08:27:46;;;;;;;5.00;1.48;;;16.50;99.90;;;;;;5053942;28;20029;-59
2023/10/06 08:30:19;;;;;;;7.13;1.42;;;16.80;99.90;;;;;;5053945;28;20036;-54
2023/10/06 08:32:45;;;;;;;5.10;1.45;;;17.00;99.90;;;;;;5053891;28;20123;-51
2023/10/06 08:35:14;;;;;;;2.55;1.40;;;17.20;99.90;;;;;;5053869;28;20035;-49
2023/10/06 08:37:42;;;;;;;2.50;1.27;;;17.20;99.90;;;;;;5053666;28;20017;-53
2023/10/06 08:40:16;;;;;;;3.42;1.40;;;17.20;99.90;;;;;;5053983;28;20428;-51
2023/10/06 08:42:48;;;;;;;3.10;1.27;;;17.20;99.90;;;;;;5053615;28;20024;-48
2023/10/06 08:45:25;;;;;;;9.15;2.00;;;17.30;99.90;;;;;;5069948;28;20029;-57
2023/10/06 08:47:59;;;;;;;2.70;1.17;;;17.50;99.90;;;;;;5052485;28;20037;-56
2023/10/06 08:50:28;;;;;;;4.88;1.50;;;17.70;99.90;;;;;;5055552;28;20047;-56
2023/10/06 08:52:56;;;;;;;6.68;1.30;;;18.00;99.90;;;;;;5073383;28;20021;-51
2023/10/06 08:55:27;;;;;;;4.65;1.20;;;18.20;99.90;;;;;;5072561;28;20028;-55
2023/10/06 08:57:53;;;;;;;4.70;1.27;;;18.40;99.90;;;;;;5073293;28;20138;-56
2023/10/06 09:00:24;;;;;;;2.75;1.00;;;18.40;99.90;;;;;;5073288;28;20044;-54
2023/10/06 09:02:52;;;;;;;1.77;0.95;;;18.40;99.90;;;;;;5070379;28;20020;-52
2023/10/06 09:05:18;;;;;;;5.05;1.30;;;18.50;99.90;;;;;;5073196;28;20020;-54
2023/10/06 09:07:59;;;;;;;3.53;1.65;;;18.50;99.90;;;;;;5073079;28;20039;-51
2023/10/06 09:10:30;;;;;;;2.03;0.70;;;18.80;99.90;;;;;;5072079;28;20485;-48
2023/10/06 09:13:01;;;;;;;4.25;1.00;;;18.80;99.90;;;;;;5071479;28;20052;-47
2023/10/06 09:15:28;;;;;;;2.88;1.15;;;19.00;99.90;;;;;;5072965;28;20028;-52
2023/10/06 09:17:53;;;;;;;1.83;0.98;;;19.30;99.90;;;;;;5072675;28;20020;-51
2023/10/06 09:20:32;;;;;;;4.35;1.10;;;19.90;99.90;;;;;;5071735;28;20033;-47
2023/10/06 09:22:59;;;;;;;2.42;0.98;;;20.60;99.90;;;;;;5072393;28;20025;-52
2023/10/06 09:25:25;;;;;;;3.03;1.05;;;21.10;99.90;;;;;;5071147;28;20477;-48
2023/10/06 09:28:04;;;;;;;2.10;0.80;;;21.10;99.90;;;;;;5071274;28;20044;-53
2023/10/06 09:30:45;;;;;;;3.85;1.00;;;20.80;99.90;;;;;;5060820;28;20033;-52
2023/10/06 09:33:11;;;;;;;2.70;1.10;;;21.00;99.90;;;;;;5059019;28;20071;-56
2023/10/06 09:35:36;;;;;;;1.95;0.93;;;21.80;99.90;;;;;;5058714;28;20448;-53
2023/10/06 09:38:17;;;;;;;3.53;1.10;;;22.10;99.90;;;;;;5071994;28;20021;-53
2023/10/06 09:40:46;;;;;;;5.97;1.10;;;22.40;99.90;;;;;;5072222;28;20473;-46
2023/10/06 09:43:17;;;;;;;4.45;1.10;;;22.40;99.90;;;;;;5072319;28;20028;-53
2023/10/06 09:45:43;;;;;;;2.70;1.17;;;22.30;99.90;;;;;;5064759;28;20036;-55
2023/10/06 09:48:15;;;;;;;3.45;1.10;;;22.30;99.90;;;;;;5071436;28;20020;-53
2023/10/06 09:50:46;;;;;;;1.98;1.20;;;22.70;99.90;;;;;;5071961;28;20120;-51
2023/10/06 09:53:12;;;;;;;3.70;1.00;;;23.20;99.90;;;;;;5071927;28;20473;-48
2023/10/06 09:55:41;;;;;;;2.13;1.00;;;23.20;99.90;;;;;;5072149;28;20031;-50
2023/10/06 09:58:08;;;;;;;2.72;0.90;;;23.10;99.90;;;;;;5071826;28;20025;-46
2023/10/06 10:00:39;;;;;;;4.10;1.20;;;22.80;99.90;;;;;;5072115;28;20024;-52
2023/10/06 10:03:12;;;;;;;1.77;1.00;;;22.70;99.90;;;;;;5071804;28;20123;-48
2023/10/06 10:05:38;;;;;;;3.10;0.90;;;23.20;99.90;;;;;;5072291;28;20101;-52
2023/10/06 10:08:06;;;;;;;3.35;0.82;;;23.40;99.90;;;;;;5071678;28;20021;-52
2023/10/06 10:10:35;;;;;;;2.05;0.80;;;23.70;99.90;;;;;;5069478;28;20031;-53
2023/10/06 10:13:19;;;;;;;;;;;23.90;99.90;;;;;;5061401;28;20484;-54
2023/10/06 10:16:16;;;;;;;2.40;1.00;;;24.00;99.90;;;;;;5071648;28;19923;-49
2023/10/06 10:18:54;;;;;;;1.33;0.70;;;24.50;99.90;;;;;;5058920;28;20033;-48
2023/10/06 10:21:22;;;;;;;1.95;0.82;;;24.80;99.90;;;;;;5051806;28;20057;-51
2023/10/06 10:23:48;;;;;;;2.38;0.75;;;24.80;99.90;;;;;;5051448;28;20362;-50
2023/10/06 10:26:16;;;;;;;1.50;0.80;;;24.40;99.90;;;;;;5065160;28;20086;-48
2023/10/06 10:28:43;;;;;;;3.83;1.00;;;24.00;99.90;;;;;;5058693;28;20397;-49
2023/10/06 10:31:17;;;;;;;7.35;1.25;;;24.20;99.90;;;;;;5051938;28;20132;-47
2023/10/06 10:33:44;;;;;;;1.67;0.85;;;24.40;99.90;;;;;;5051283;28;20071;-49
2023/10/06 10:36:13;;;;;;;2.65;0.93;;;24.10;99.90;;;;;;5051032;28;20040;-50
2023/10/06 10:38:40;;;;;;;3.53;1.00;;;24.40;99.90;;;;;;5051557;28;20024;-46
2023/10/06 10:41:09;;;;;;;4.78;1.20;;;24.40;99.90;;;;;;5055998;28;20031;-46
2023/10/06 10:43:41;;;;;;;2.60;0.93;;;24.40;99.90;;;;;;5071308;28;20523;-51
2023/10/06 10:46:08;;;;;;;4.63;1.17;;;24.50;99.90;;;;;;5070870;28;20484;-48
2023/10/06 10:48:47;;;;;;;2.40;0.82;;;24.30;99.90;;;;;;5071164;28;20024;-46
2023/10/06 10:51:14;;;;;;;;;;;24.30;99.90;;;;;;5071047;28;20463;-48
2023/10/06 10:53:43;;;;;;;2.67;0.93;;;24.80;99.90;;;;;;5071021;28;19904;-47
2023/10/06 10:56:25;;;;;;;3.35;1.00;;;25.00;99.90;;;;;;5070946;28;20022;-47
2023/10/06 10:58:50;;;;;;;2.58;0.93;;;25.60;99.90;;;;;;5068642;28;20024;-47
2023/10/06 11:01:23;;;;;;;7.45;1.20;;;25.90;99.90;;;;;;5053399;28;20020;-47
2023/10/06 11:04:21;;;;;;;5.28;1.27;;;25.70;99.90;;;;;;5050836;28;20112;-47
2023/10/06 11:06:48;;;;;;;2.13;0.60;;;25.50;99.90;;;;;;5050900;28;20112;-45
2023/10/06 11:09:40;;;;;;;4.38;0.98;;;25.10;99.90;;;;;;5050693;28;20033;-51
2023/10/06 11:12:22;;;;;;;4.43;1.13;;;24.60;99.90;;;;;;5050869;28;20037;-47
2023/10/06 11:14:51;;;;;;;3.95;1.30;;;23.90;99.90;;;;;;5050668;28;20400;-46
2023/10/06 11:17:24;;;;;;;4.28;1.00;;;23.70;99.90;;;;;;5050890;28;20127;-47
2023/10/06 11:20:01;;;;;;;4.45;1.25;;;23.30;99.90;;;;;;5050746;28;20108;-50
2023/10/06 11:22:28;;;;;;;4.13;1.23;;;22.50;99.90;;;;;;5050548;28;20049;-49
2023/10/06 11:24:57;;;;;;;2.55;0.80;;;22.10;99.90;;;;;;5050568;28;20092;-54
2023/10/06 11:27:23;;;;;;;;;;;22.20;99.90;;;;;;5064934;28;20098;-53
2023/10/06 11:29:53;;;;;;;2.75;1.23;;;22.60;99.90;;;;;;5064718;28;19909;-48
2023/10/06 11:32:21;;;;;;;8.65;1.25;;;22.70;99.90;;;;;;5055874;28;20098;-48
2023/10/06 11:34:49;;;;;;;1.88;0.85;;;22.90;99.90;;;;;;5066797;28;20031;-53
2023/10/06 11:37:25;;;;;;;5.68;1.35;;;23.30;99.90;;;;;;5070503;28;20111;-48
2023/10/06 11:39:55;;;;;;;3.85;1.00;;;22.90;99.90;;;;;;5070303;28;20020;-51
2023/10/06 11:42:24;;;;;;;4.00;1.10;;;23.50;99.90;;;;;;5063907;28;20029;-49
2023/10/06 11:44:52;;;;;;;3.53;1.05;;;23.80;99.90;;;;;;5070033;28;20580;-49
2023/10/06 11:47:21;;;;;;;3.05;0.90;;;24.30;99.90;;;;;;5070271;28;20028;-53
2023/10/06 11:50:00;;;;;;;3.92;1.30;;;24.80;99.90;;;;;;5069615;28;20032;-50
2023/10/06 11:52:29;;;;;;;3.70;1.40;;;24.70;99.90;;;;;;5069526;28;20123;-51
2023/10/06 11:54:57;;;;;;;2.45;1.00;;;24.30;99.90;;;;;;5070165;28;20032;-55
2023/10/06 11:57:47;;;;;;;6.13;1.33;;;24.30;99.90;;;;;;5051746;28;20057;-52
2023/10/06 12:00:17;;;;;;;2.75;1.00;;;24.70;99.90;;;;;;5061016;28;20021;-49
2023/10/06 12:02:47;;;;;;;3.95;1.08;;;24.50;99.90;;;;;;5067267;28;20069;-53
2023/10/06 12:05:13;;;;;;;5.07;1.30;;;24.70;99.90;;;;;;5070296;28;20025;-55
2023/10/06 12:07:39;;;;;;;3.70;1.85;;;24.90;99.90;;;;;;5070098;28;20532;-51
2023/10/06 12:10:06;;;;;;;3.45;1.00;;;24.90;99.90;;;;;;5069981;28;20036;-51
2023/10/06 12:12:31;;;;;;;5.03;1.02;;;24.90;99.90;;;;;;5069913;28;20108;-54
2023/10/06 12:14:57;;;;;;;4.25;1.35;;;24.80;99.90;;;;;;5058905;28;20110;-55
2023/10/06 12:17:26;;;;;;;2.95;1.10;;;24.40;99.90;;;;;;5069020;28;20397;-47
2023/10/06 12:19:52;;;;;;;3.40;1.10;;;24.40;99.90;;;;;;5051123;28;20024;-52
2023/10/06 12:22:18;;;;;;;2.65;1.15;;;24.10;99.90;;;;;;5054560;28;20053;-53
2023/10/06 12:24:45;;;;;;;3.00;1.10;;;23.70;99.90;;;;;;5067976;28;20117;-53
2023/10/06 12:27:17;;;;;;;3.08;1.17;;;23.50;99.90;;;;;;5067584;28;20065;-54
2023/10/06 12:29:44;;;;;;;3.13;1.00;;;23.50;99.90;;;;;;5064727;28;20042;-54
2023/10/06 12:32:10;;;;;;;3.65;1.45;;;23.40;99.90;;;;;;5054829;28;20049;-53
2023/10/06 12:34:36;;;;;;;3.78;1.55;;;23.30;99.90;;;;;;5069107;28;20037;-50
2023/10/06 12:37:03;;;;;;;3.42;1.13;;;23.40;99.90;;;;;;5069822;28;20111;-53
2023/10/06 12:39:34;;;;;;;5.68;1.05;;;23.50;99.90;;;;;;5067867;28;20097;-46
2023/10/06 12:42:00;;;;;;;3.53;0.95;;;23.70;99.90;;;;;;5069343;28;20439;-49
2023/10/06 12:44:27;;;;;;;2.83;0.90;;;23.70;99.90;;;;;;5069337;28;20025;-47
2023/10/06 12:46:56;;;;;;;6.40;1.27;;;23.60;99.90;;;;;;5069507;28;20040;-45
2023/10/06 12:49:23;;;;;;;3.80;1.02;;;23.50;99.90;;;;;;5069540;28;20374;-46
2023/10/06 12:51:52;;;;;;;5.07;1.45;;;23.10;99.90;;;;;;5069470;28;20045;-49
2023/10/06 12:54:19;;;;;;;5.72;1.10;;;22.80;99.90;;;;;;5070016;28;20519;-47
2023/10/06 12:56:46;;;;;;;1.70;1.00;;;22.40;99.90;;;;;;5073201;28;20078;-55
2023/10/06 12:59:12;;;;;;;2.35;0.80;;;22.10;99.90;;;;;;5072703;28;20028;-48
2023/10/06 13:01:38;;;;;;;4.88;1.08;;;21.90;99.90;;;;;;5072334;28;20111;-52
2023/10/06 13:04:05;;;;;;;6.10;1.40;;;21.80;99.90;;;;;;5072235;28;20440;-52
2023/10/06 13:06:31;;;;;;;3.55;1.63;;;21.80;99.90;;;;;;5072237;28;20089;-46
2023/10/06 13:09:02;;;;;;;2.22;1.00;;;21.60;99.90;;;;;;5072277;28;20032;-47
2023/10/06 13:11:28;;;;;;;3.35;1.25;;;21.60;99.90;;;;;;5062019;28;20041;-52
2023/10/06 13:13:54;;;;;;;3.35;0.95;;;21.70;99.90;;;;;;5052319;28;20541;-44